Time;durP1;ratioP1;P1;durP2;ratioP2;P2;SDS_P1;SDS_P2;PMS_P1;PMS_P2;Temp;Humidity;BMP_temperature;BMP_pressure;BME280_temperature;BME280_humidity;BME280_pressure;Samples;Min_cycle;Max_cycle;Signal;HPM_P1;HPM_P2
2022/07/04 00:01:13;;;;;;;10.13;6.38;;;;;;;19.44;49.44;99841.25;6182110;23;20016;-78
2022/07/04 00:03:39;;;;;;;8.80;5.68;;;;;;;19.41;49.91;99850.16;6158231;23;20024;-77
2022/07/04 00:06:05;;;;;;;8.60;4.90;;;;;;;19.38;50.05;99850.31;6184315;23;20091;-78
2022/07/04 00:08:31;;;;;;;10.27;6.18;;;;;;;19.35;50.16;99850.44;6182764;23;20017;-76
2022/07/04 00:10:57;;;;;;;7.70;5.50;;;;;;;19.29;50.27;99847.22;6182499;23;20032;-75
2022/07/04 00:13:23;;;;;;;7.20;5.40;;;;;;;19.31;50.45;99853.28;6157946;23;20045;-77
2022/07/04 00:15:49;;;;;;;10.48;4.95;;;;;;;19.29;50.61;99852.50;6182777;23;20017;-75
2022/07/04 00:18:15;;;;;;;11.60;7.72;;;;;;;19.25;50.33;99843.84;6182585;23;20020;-76
2022/07/04 00:20:41;;;;;;;7.07;5.78;;;;;;;19.20;50.25;99835.31;6184049;23;20363;-76
2022/07/04 00:23:07;;;;;;;7.78;6.30;;;;;;;19.21;50.25;99845.78;6182245;23;20024;-77
2022/07/04 00:25:33;;;;;;;7.93;5.40;;;;;;;19.11;50.24;99836.53;6182789;23;20041;-76
2022/07/04 00:27:59;;;;;;;8.73;5.32;;;;;;;19.09;50.40;99849.81;6181979;23;20016;-76
2022/07/04 00:30:25;;;;;;;10.90;5.18;;;;;;;19.02;50.59;99847.50;6182674;23;20017;-77
2022/07/04 00:32:51;;;;;;;8.55;4.60;;;;;;;18.95;51.13;99849.56;6184051;23;20020;-77
2022/07/04 00:35:18;;;;;;;7.65;4.78;;;;;;;18.87;51.18;99855.09;6182919;23;20077;-75
2022/07/04 00:37:44;;;;;;;6.53;4.80;;;;;;;18.80;51.38;99857.13;6160726;23;20021;-75
2022/07/04 00:40:10;;;;;;;10.93;4.97;;;;;;;18.77;51.81;99853.78;6184523;23;20028;-77
2022/07/04 00:42:36;;;;;;;8.57;5.32;;;;;;;18.77;51.84;99851.16;6184363;23;20009;-77
2022/07/04 00:45:03;;;;;;;6.80;5.00;;;;;;;18.75;51.98;99856.50;6182190;23;20017;-76
2022/07/04 00:47:29;;;;;;;8.98;4.90;;;;;;;18.70;51.76;99847.03;6183971;23;20087;-77
2022/07/04 00:49:55;;;;;;;7.78;4.63;;;;;;;18.74;51.78;99865.31;6157177;23;20470;-75
2022/07/04 00:52:21;;;;;;;11.50;5.85;;;;;;;18.70;52.04;99863.72;6181867;23;20036;-77
2022/07/04 00:54:49;;;;;;;8.05;4.82;;;;;;;18.69;51.58;99867.28;6182992;23;20017;-76
2022/07/04 00:57:15;;;;;;;6.43;5.65;;;;;;;18.70;51.72;99871.63;6182082;23;20017;-77
2022/07/04 00:59:41;;;;;;;7.43;5.03;;;;;;;18.64;51.73;99864.84;6183680;23;20023;-77
2022/07/04 01:02:07;;;;;;;7.65;5.22;;;;;;;18.61;51.62;99858.84;6183447;23;20048;-77
2022/07/04 01:04:34;;;;;;;7.80;4.40;;;;;;;18.69;51.76;99874.31;6183596;23;20028;-76
2022/07/04 01:07:02;;;;;;;7.28;5.00;;;;;;;18.66;51.78;99876.16;6182444;23;20021;-76
2022/07/04 01:09:28;;;;;;;7.75;4.65;;;;;;;18.63;51.86;99867.53;6184291;23;20113;-76
2022/07/04 01:11:54;;;;;;;6.45;4.68;;;;;;;18.50;51.64;99846.97;6187935;23;20020;-77
2022/07/04 01:14:20;;;;;;;6.68;4.60;;;;;;;18.55;51.94;99856.44;6208597;23;19997;-75
2022/07/04 01:16:46;;;;;;;9.13;5.50;;;;;;;18.55;51.87;99862.59;6195281;23;20027;-75
2022/07/04 01:19:12;;;;;;;9.88;4.90;;;;;;;18.48;52.42;99863.75;6187555;23;20021;-75
2022/07/04 01:21:39;;;;;;;10.18;5.03;;;;;;;18.46;52.90;99874.34;6134134;23;20040;-76
2022/07/04 01:24:05;;;;;;;10.23;5.53;;;;;;;18.36;53.24;99871.22;6184015;23;20103;-76
2022/07/04 01:26:31;;;;;;;8.57;5.38;;;;;;;18.39;53.87;99872.03;6182720;23;20017;-76
2022/07/04 01:28:57;;;;;;;11.20;4.70;;;;;;;18.38;53.67;99883.50;6181933;23;20476;-76
2022/07/04 01:31:23;;;;;;;7.55;5.10;;;;;;;18.34;53.54;99873.06;6183739;23;20027;-77
2022/07/04 01:33:49;;;;;;;10.02;5.10;;;;;;;18.29;53.57;99875.03;6181822;23;20017;-78
2022/07/04 01:36:15;;;;;;;10.35;4.85;;;;;;;18.34;53.93;99877.47;6157952;23;20017;-76
2022/07/04 01:38:41;;;;;;;12.77;5.20;;;;;;;18.31;54.22;99896.88;6184966;23;20023;-77
2022/07/04 01:41:07;;;;;;;8.25;5.28;;;;;;;18.27;54.74;99897.94;6182726;23;20397;-78
2022/07/04 01:43:35;;;;;;;9.18;6.25;;;;;;;18.30;55.02;99897.81;6182737;23;20013;-76
2022/07/04 01:46:03;;;;;;;12.00;6.18;;;;;;;18.32;54.92;99895.09;6184095;23;20067;-77
2022/07/04 01:48:44;;;;;;;12.00;5.85;;;;;;;18.31;54.69;99894.25;6185801;23;20099;-76
2022/07/04 01:51:15;;;;;;;10.05;5.45;;;;;;;18.29;54.67;99874.19;6202654;23;20024;-77
2022/07/04 01:53:46;;;;;;;;;;;;;;;18.45;54.55;99898.09;6171881;23;20013;-77
2022/07/04 01:56:12;;;;;;;8.90;5.13;;;;;;;18.50;54.36;99898.78;6181473;23;19912;-76
2022/07/04 01:58:38;;;;;;;10.93;5.60;;;;;;;18.48;54.31;99895.34;6157459;23;20021;-77
2022/07/04 02:03:49;;;;;;;10.15;5.93;;;;;;;18.54;54.56;99897.75;6184220;23;20458;-77
2022/07/04 02:06:21;;;;;;;8.82;6.10;;;;;;;18.61;55.03;99898.34;6182937;23;20099;-77
2022/07/04 02:13:00;;;;;;;12.35;6.07;;;;;;;18.75;54.86;99888.13;6157268;23;20513;-77
2022/07/04 02:14:17;;;;;;;14.25;6.70;;;;;;;18.89;54.52;99895.44;6158504;23;20031;-75
2022/07/04 02:16:49;;;;;;;;;;;;;;;19.02;54.24;99894.97;6187176;23;20016;-76
2022/07/04 02:19:15;;;;;;;13.73;7.20;;;;;;;19.10;53.98;99891.06;6193102;23;19978;-76
2022/07/04 02:21:42;;;;;;;14.48;7.65;;;;;;;19.15;54.15;99879.47;6187687;23;20021;-76
2022/07/04 02:24:08;;;;;;;11.65;7.00;;;;;;;19.29;53.74;99897.34;6183190;23;20067;-77
2022/07/04 02:26:34;;;;;;;12.95;7.60;;;;;;;19.36;53.63;99894.38;6133156;23;20020;-75
2022/07/04 02:29:00;;;;;;;11.35;7.00;;;;;;;19.45;53.63;99898.38;6181486;23;20016;-76
2022/07/04 02:31:26;;;;;;;12.65;6.57;;;;;;;19.55;53.63;99901.47;6182450;23;20035;-74
2022/07/04 02:33:52;;;;;;;10.82;6.53;;;;;;;19.60;53.55;99894.19;6183250;23;20024;-76
2022/07/04 02:36:19;;;;;;;8.23;6.80;;;;;;;19.79;53.52;99911.84;6181072;23;20024;-75
2022/07/04 02:38:44;;;;;;;11.23;6.97;;;;;;;19.90;53.26;99906.09;6182394;23;20411;-78
2022/07/04 02:41:11;;;;;;;15.57;7.05;;;;;;;20.01;52.76;99909.97;6180675;23;20070;-76
2022/07/04 02:43:37;;;;;;;11.43;6.13;;;;;;;20.11;52.59;99904.22;6183394;23;20021;-76
2022/07/04 02:46:03;;;;;;;9.95;6.32;;;;;;;20.27;52.53;99909.66;6181853;23;20085;-77
2022/07/04 02:48:29;;;;;;;11.15;6.32;;;;;;;20.37;52.07;99913.56;6158446;23;20044;-77
2022/07/04 02:50:55;;;;;;;11.80;7.47;;;;;;;20.47;51.78;99914.00;6184550;23;20016;-76
2022/07/04 02:53:20;;;;;;;12.68;7.30;;;;;;;20.54;51.49;99894.25;6183207;23;20023;-76
2022/07/04 02:55:47;;;;;;;10.25;6.88;;;;;;;20.68;50.93;99895.38;6186345;23;20387;-75
2022/07/04 02:58:12;;;;;;;12.25;6.78;;;;;;;20.72;51.08;99883.72;6182587;23;20023;-74
2022/07/04 03:00:38;;;;;;;10.18;7.35;;;;;;;20.85;50.75;99891.94;6182838;23;20402;-77
2022/07/04 03:03:04;;;;;;;10.18;7.53;;;;;;;21.00;50.48;99903.50;6131566;23;20017;-78
2022/07/04 03:05:32;;;;;;;11.10;7.40;;;;;;;21.12;49.83;99902.00;6182740;23;20147;-76
2022/07/04 03:07:58;;;;;;;9.10;6.88;;;;;;;21.18;49.83;99889.34;6181115;23;20041;-76
2022/07/04 03:10:24;;;;;;;11.48;7.57;;;;;;;21.34;49.73;99899.97;6180531;23;20025;-78
2022/07/04 03:12:50;;;;;;;10.85;7.28;;;;;;;21.43;49.35;99898.63;6181721;23;20075;-76
2022/07/04 03:15:16;;;;;;;14.23;7.43;;;;;;;21.57;49.14;99897.91;6182689;23;20017;-77
2022/07/04 03:17:42;;;;;;;11.45;6.68;;;;;;;21.70;49.09;99898.13;6182116;23;20044;-77
2022/07/04 03:20:09;;;;;;;10.50;6.80;;;;;;;21.84;48.74;99897.38;6184655;23;20021;-77
2022/07/04 03:22:35;;;;;;;9.75;7.00;;;;;;;22.00;48.36;99896.53;6133431;23;20075;-77
2022/07/04 03:25:01;;;;;;;9.90;7.50;;;;;;;22.11;48.37;99896.81;6182634;23;20021;-76
2022/07/04 03:27:29;;;;;;;9.88;7.15;;;;;;;22.25;48.09;99896.88;6184017;23;20091;-78
2022/07/04 03:29:55;;;;;;;10.98;7.25;;;;;;;22.27;47.97;99883.56;6183150;23;20538;-77
2022/07/04 03:32:21;;;;;;;9.68;7.10;;;;;;;22.51;47.65;99896.41;6182906;23;20013;-76
2022/07/04 03:34:47;;;;;;;10.52;7.88;;;;;;;22.63;47.50;99900.13;6157799;23;20353;-78
2022/07/04 03:37:13;;;;;;;17.48;7.97;;;;;;;22.77;47.45;99902.84;6184313;23;20043;-76
2022/07/04 03:39:39;;;;;;;11.05;8.02;;;;;;;22.89;47.05;99905.72;6182914;23;20458;-77
2022/07/04 03:42:05;;;;;;;11.98;7.95;;;;;;;23.04;46.83;99902.16;6157453;23;20017;-78
2022/07/04 03:44:31;;;;;;;11.30;7.93;;;;;;;23.07;46.77;99877.25;6182196;23;20103;-77
2022/07/04 03:46:58;;;;;;;14.95;8.73;;;;;;;23.27;46.08;99900.81;6184781;23;20072;-76
2022/07/04 03:49:24;;;;;;;20.98;9.57;;;;;;;23.31;46.32;99891.72;6189002;23;20087;-77
2022/07/04 03:51:51;;;;;;;12.18;8.55;;;;;;;23.46;46.24;99892.59;6187726;23;20100;-78
2022/07/04 03:54:17;;;;;;;15.75;8.15;;;;;;;23.59;46.29;99898.00;6158276;23;20056;-77
2022/07/04 03:56:42;;;;;;;12.77;7.60;;;;;;;23.76;46.55;99902.25;6183198;23;20079;-76
2022/07/04 03:59:08;;;;;;;11.73;8.27;;;;;;;23.96;46.16;99910.75;6185919;23;20462;-77
2022/07/04 04:01:35;;;;;;;14.52;8.35;;;;;;;24.10;45.96;99904.59;6194295;23;20443;-76
2022/07/04 04:06:45;;;;;;;12.75;7.70;;;;;;;24.37;45.54;99901.13;6190475;23;20019;-76
2022/07/04 04:09:16;;;;;;;13.40;8.43;;;;;;;24.44;45.71;99909.53;6160613;23;20039;-77
2022/07/04 04:11:43;;;;;;;12.30;7.60;;;;;;;24.50;45.76;99895.84;6185275;23;20023;-77
2022/07/04 04:14:09;;;;;;;12.88;7.90;;;;;;;24.64;45.25;99911.75;6185309;23;20772;-76
2022/07/04 04:16:36;;;;;;;13.98;7.53;;;;;;;24.65;45.29;99904.63;6183922;23;20485;-76
2022/07/04 04:19:01;;;;;;;13.45;7.40;;;;;;;24.87;44.57;99908.56;6182894;23;20021;-77
2022/07/04 04:21:28;;;;;;;13.82;7.45;;;;;;;24.99;44.49;99907.72;6183002;23;20017;-76
2022/07/04 04:23:54;;;;;;;12.10;6.30;;;;;;;25.11;44.23;99911.34;6184084;23;20027;-77
2022/07/04 04:26:20;;;;;;;12.52;6.75;;;;;;;25.29;43.83;99913.72;6184868;23;20478;-79
2022/07/04 04:28:46;;;;;;;15.27;6.70;;;;;;;25.34;43.65;99912.44;6182599;23;20023;-79
2022/07/04 04:31:14;;;;;;;12.00;6.45;;;;;;;25.44;43.54;99910.03;6134339;23;20058;-76
2022/07/04 04:33:40;;;;;;;10.07;6.50;;;;;;;25.58;43.46;99913.53;6183453;23;20013;-78
2022/07/04 04:36:06;;;;;;;10.77;6.03;;;;;;;25.73;43.24;99912.44;6183617;23;20017;-76
2022/07/04 04:38:35;;;;;;;13.38;6.93;;;;;;;25.79;43.22;99895.19;6182237;23;20537;-76
2022/07/04 04:41:01;;;;;;;9.52;6.40;;;;;;;26.03;42.98;99903.22;6160142;23;20019;-79
2022/07/04 04:43:31;;;;;;;10.27;6.70;;;;;;;26.24;42.88;99908.00;6182329;23;20017;-79
2022/07/04 04:45:56;;;;;;;9.98;6.35;;;;;;;26.35;42.22;99905.41;6182508;23;20017;-78
2022/07/04 04:48:23;;;;;;;14.57;6.60;;;;;;;26.52;42.25;99914.81;6181325;23;20534;-77
2022/07/04 04:50:49;;;;;;;10.95;6.50;;;;;;;26.64;42.02;99912.22;6183126;23;20104;-77
2022/07/04 04:53:15;;;;;;;13.18;6.35;;;;;;;26.83;41.77;99911.69;6157455;23;20013;-78
2022/07/04 04:55:41;;;;;;;14.63;6.35;;;;;;;26.94;41.45;99897.53;6183692;23;20462;-78
2022/07/04 04:58:07;;;;;;;11.23;6.25;;;;;;;27.13;41.13;99907.66;6183528;23;20055;-77
2022/07/04 05:00:33;;;;;;;11.93;6.43;;;;;;;27.31;41.32;99908.06;6158685;23;20023;-78
2022/07/04 05:02:59;;;;;;;12.05;6.00;;;;;;;27.42;41.41;99899.22;6184553;23;20013;-77
2022/07/04 05:05:25;;;;;;;7.95;5.50;;;;;;;27.54;41.09;99894.78;6184057;23;20105;-77
2022/07/04 05:07:51;;;;;;;7.95;6.65;;;;;;;27.73;40.69;99899.47;6184498;23;20044;-76
2022/07/04 05:10:21;;;;;;;11.45;6.32;;;;;;;27.88;40.12;99897.41;6132563;23;20454;-77
2022/07/04 05:12:47;;;;;;;9.27;5.97;;;;;;;27.96;40.00;99901.16;6181693;23;20402;-77
2022/07/04 05:15:14;;;;;;;14.10;5.70;;;;;;;27.96;39.93;99892.31;6181985;23;20017;-76
2022/07/04 05:17:40;;;;;;;8.40;5.40;;;;;;;28.09;39.88;99892.16;6157841;23;20488;-76
2022/07/04 05:20:07;;;;;;;9.48;5.43;;;;;;;28.33;39.50;99900.03;6182615;23;20021;-75
2022/07/04 05:22:33;;;;;;;9.07;5.45;;;;;;;28.52;38.89;99902.03;6183332;23;20021;-76
2022/07/04 05:24:59;;;;;;;10.35;5.95;;;;;;;28.64;38.97;99888.59;6185955;23;20491;-78
2022/07/04 05:27:26;;;;;;;10.52;5.95;;;;;;;28.81;38.73;99889.91;6200347;23;20048;-78
2022/07/04 05:29:52;;;;;;;9.95;5.80;;;;;;;28.89;38.26;99894.59;6195243;23;20016;-78
2022/07/04 05:32:20;;;;;;;10.45;5.90;;;;;;;28.95;38.41;99902.97;6163617;23;20013;-76
2022/07/04 05:34:46;;;;;;;9.77;6.25;;;;;;;29.04;37.82;99892.47;6182992;23;20027;-76
2022/07/04 05:37:12;;;;;;;7.93;5.85;;;;;;;29.08;37.64;99897.41;6181496;23;20040;-76
2022/07/04 05:39:38;;;;;;;10.95;5.80;;;;;;;29.17;37.33;99901.13;6132419;23;20016;-77
2022/07/04 05:42:04;;;;;;;12.30;6.20;;;;;;;29.29;37.29;99893.88;6182359;23;20591;-77
2022/07/04 05:44:30;;;;;;;13.18;6.30;;;;;;;29.42;37.40;99902.59;6182641;23;20139;-77
2022/07/04 05:46:56;;;;;;;10.07;6.20;;;;;;;29.60;37.47;99902.78;6182700;23;20028;-77
2022/07/04 05:49:22;;;;;;;8.20;6.30;;;;;;;29.73;37.00;99891.84;6184218;23;20017;-76
2022/07/04 05:51:48;;;;;;;10.95;6.40;;;;;;;30.06;36.36;99902.41;6182243;23;20025;-76
2022/07/04 05:54:14;;;;;;;12.30;6.50;;;;;;;30.55;36.01;99885.53;6155664;23;20103;-76
2022/07/04 05:56:42;;;;;;;8.77;6.03;;;;;;;31.96;35.13;99899.22;6182297;23;20040;-75
2022/07/04 05:59:11;;;;;;;10.43;6.18;;;;;;;34.00;32.40;99891.19;6181011;23;20028;-77
2022/07/04 06:01:37;;;;;;;9.45;5.53;;;;;;;35.86;30.59;99875.38;6180690;23;20450;-77
2022/07/04 06:04:04;;;;;;;10.63;5.80;;;;;;;37.89;28.17;99877.63;6183140;23;20517;-78
2022/07/04 06:06:30;;;;;;;21.20;5.88;;;;;;;39.69;25.70;99879.34;6184726;23;20501;-74
2022/07/04 06:08:58;;;;;;;10.20;5.70;;;;;;;41.07;24.00;99890.91;6185555;23;20047;-77
2022/07/04 06:11:24;;;;;;;6.97;4.97;;;;;;;42.44;22.21;99891.88;6192232;23;20017;-77
2022/07/04 06:13:50;;;;;;;9.88;5.47;;;;;;;43.36;20.94;99884.94;6182577;23;20028;-76
2022/07/04 06:16:17;;;;;;;12.00;5.43;;;;;;;44.30;19.57;99889.19;6182863;23;20346;-78
2022/07/04 06:18:43;;;;;;;6.97;5.10;;;;;;;45.07;18.76;99886.66;6182231;23;20319;-75
2022/07/04 06:21:12;;;;;;;8.10;4.55;;;;;;;46.08;17.51;99884.63;6184555;23;20048;-76
2022/07/04 06:23:38;;;;;;;5.80;4.43;;;;;;;46.99;17.05;99888.31;6181658;23;20459;-79
2022/07/04 06:26:04;;;;;;;6.40;4.82;;;;;;;47.74;16.07;99880.47;6181858;23;20028;-77
2022/07/04 06:28:33;;;;;;;7.90;4.78;;;;;;;48.14;15.27;99886.69;6180881;23;20021;-77
2022/07/04 06:31:02;;;;;;;10.55;4.82;;;;;;;48.76;14.42;99873.41;6181413;23;20020;-79
2022/07/04 06:33:28;;;;;;;6.03;4.45;;;;;;;49.37;13.86;99885.03;6183185;23;20059;-79
2022/07/04 06:35:55;;;;;;;5.82;4.75;;;;;;;49.92;13.02;99884.66;6182823;23;20046;-77
2022/07/04 06:38:24;;;;;;;4.70;4.30;;;;;;;50.00;12.71;99890.47;6156593;23;20052;-78
2022/07/04 06:40:53;;;;;;;5.55;4.80;;;;;;;50.49;12.11;99883.59;6132304;23;20021;-77
2022/07/04 06:43:22;;;;;;;6.97;4.00;;;;;;;51.04;11.28;99871.06;6181354;23;20025;-77
2022/07/04 06:45:48;;;;;;;;;;;;;;;50.99;11.57;99876.63;6183233;23;20044;-78
2022/07/04 06:48:14;;;;;;;14.02;12.70;;;;;;;51.20;11.96;99878.22;6158364;23;19919;-78
2022/07/04 06:50:43;;;;;;;16.63;15.07;;;;;;;51.59;10.69;99890.53;6187300;23;20022;-76
2022/07/04 06:53:10;;;;;;;5.50;4.32;;;;;;;51.92;10.46;99890.88;6201099;23;20009;-78
2022/07/04 06:55:42;;;;;;;5.25;4.75;;;;;;;52.39;10.71;99882.19;6200779;23;20017;-76
2022/07/04 06:58:10;;;;;;;7.00;6.40;;;;;;;52.99;9.95;99889.38;6188546;23;20094;-79
2022/07/04 07:00:39;;;;;;;5.87;5.07;;;;;;;53.42;9.50;99878.47;6184572;23;20024;-77
2022/07/04 07:03:09;;;;;;;5.45;4.95;;;;;;;53.70;9.11;99874.88;6156391;23;20071;-79
2022/07/04 07:05:36;;;;;;;8.73;6.38;;;;;;;54.03;9.10;99877.69;6163082;23;20020;-77
2022/07/04 07:08:04;;;;;;;8.60;5.22;;;;;;;54.27;8.92;99871.19;6182003;23;20041;-77
2022/07/04 07:10:38;;;;;;;5.13;4.70;;;;;;;54.52;9.05;99874.66;6181443;23;20043;-76
2022/07/04 07:13:05;;;;;;;5.22;4.72;;;;;;;54.71;8.60;99867.06;6181022;23;20059;-78
2022/07/04 07:15:37;;;;;;;5.22;4.72;;;;;;;54.55;8.42;99863.72;6182796;23;20083;-79
2022/07/04 07:18:04;;;;;;;5.55;4.43;;;;;;;54.45;8.66;99875.88;6182860;23;20013;-77
2022/07/04 07:20:30;;;;;;;5.25;4.80;;;;;;;54.18;8.28;99869.09;6181093;23;20055;-76
2022/07/04 07:22:56;;;;;;;5.25;4.75;;;;;;;52.22;8.90;99872.34;6181249;23;20075;-79
2022/07/04 07:25:22;;;;;;;5.47;5.07;;;;;;;49.68;10.20;99872.19;6181022;23;20021;-77
2022/07/04 07:27:48;;;;;;;4.68;4.18;;;;;;;48.23;11.25;99865.78;6182385;23;20023;-77
2022/07/04 07:30:15;;;;;;;6.88;4.60;;;;;;;48.57;11.18;99861.94;6183039;23;20449;-77
2022/07/04 07:32:41;;;;;;;5.10;4.45;;;;;;;50.11;10.33;99860.91;6187337;23;20024;-79
2022/07/04 07:35:08;;;;;;;7.47;5.18;;;;;;;51.56;9.52;99868.09;6180894;23;20032;-79
2022/07/04 07:37:34;;;;;;;5.38;4.95;;;;;;;52.18;9.41;99873.22;6181106;23;20021;-76
2022/07/04 07:40:01;;;;;;;6.00;5.38;;;;;;;52.92;9.25;99859.16;6180549;23;20155;-77
2022/07/04 07:42:29;;;;;;;5.38;4.97;;;;;;;53.53;8.62;99855.91;6180852;23;20025;-79
2022/07/04 07:44:56;;;;;;;5.10;4.75;;;;;;;54.07;8.53;99858.47;6155613;23;20024;-77
2022/07/04 07:47:26;;;;;;;;;;;;;;;54.50;8.02;99861.88;6180888;23;20016;-76
2022/07/04 07:49:55;;;;;;;5.72;5.32;;;;;;;54.69;8.08;99855.41;6182369;23;19919;-78
2022/07/04 07:52:21;;;;;;;5.57;5.10;;;;;;;54.87;7.75;99862.00;6181175;23;20097;-76
2022/07/04 07:54:47;;;;;;;5.53;5.03;;;;;;;55.39;7.34;99855.38;6182199;23;20032;-77
2022/07/04 07:57:13;;;;;;;5.65;5.15;;;;;;;55.82;6.59;99860.50;6185731;23;20021;-78
2022/07/04 07:59:48;;;;;;;6.50;5.05;;;;;;;55.92;7.37;99867.81;6182806;23;20067;-78
2022/07/04 08:02:14;;;;;;;5.75;5.22;;;;;;;55.92;7.33;99862.25;6156486;23;20056;-78
2022/07/04 08:04:43;;;;;;;6.70;5.30;;;;;;;55.87;6.84;99859.53;6180047;23;20020;-77
2022/07/04 08:07:19;;;;;;;8.05;5.20;;;;;;;56.21;7.27;99869.28;6183911;23;20024;-77
2022/07/04 08:09:49;;;;;;;5.35;5.03;;;;;;;56.10;6.61;99835.25;6183500;23;20104;-76
2022/07/04 08:12:16;;;;;;;21.63;19.83;;;;;;;56.53;6.50;99855.34;6133654;23;20103;-77
2022/07/04 08:14:42;;;;;;;6.53;5.50;;;;;;;56.91;6.68;99854.03;6183874;23;20040;-78
2022/07/04 08:17:14;;;;;;;6.10;5.50;;;;;;;56.06;7.31;99847.38;6183717;23;20366;-78
2022/07/04 08:19:40;;;;;;;5.75;5.20;;;;;;;56.17;6.90;99845.94;6157581;23;20027;-77
2022/07/04 08:22:07;;;;;;;6.60;5.55;;;;;;;55.87;7.16;99862.31;6182150;23;20016;-76
2022/07/04 08:24:33;;;;;;;7.13;6.47;;;;;;;55.73;6.55;99839.28;6157116;23;20020;-77
2022/07/04 08:27:03;;;;;;;7.35;6.70;;;;;;;56.46;6.31;99846.63;6181892;23;20403;-77
2022/07/04 08:29:32;;;;;;;6.13;5.50;;;;;;;56.94;6.52;99854.22;6182108;23;20063;-78
2022/07/04 08:31:58;;;;;;;6.28;5.70;;;;;;;57.34;5.86;99863.66;6157787;23;20020;-78
2022/07/04 08:34:25;;;;;;;5.75;5.25;;;;;;;57.47;6.15;99851.50;6184068;23;20632;-78
2022/07/04 08:36:51;;;;;;;5.32;4.93;;;;;;;57.37;6.09;99861.03;6183975;23;20095;-77
2022/07/04 08:39:20;;;;;;;5.90;5.28;;;;;;;57.41;5.67;99850.00;6184719;23;20463;-78
2022/07/04 08:41:51;;;;;;;5.70;5.30;;;;;;;57.20;5.49;99858.22;6190841;23;20023;-77
2022/07/04 08:44:20;;;;;;;6.32;5.38;;;;;;;56.47;5.70;99865.81;6163548;23;20530;-77
2022/07/04 08:46:50;;;;;;;9.60;5.53;;;;;;;56.23;5.81;99853.06;6184772;23;20024;-78
2022/07/04 08:49:26;;;;;;;6.63;6.07;;;;;;;55.92;6.31;99850.25;6183828;23;20013;-77
2022/07/04 08:51:55;;;;;;;10.32;9.35;;;;;;;55.36;6.55;99848.44;6184547;23;20402;-77
2022/07/04 09:00:02;;;;;;;7.72;6.88;;;;;;;53.29;7.75;99832.66;6191120;23;20067;-79
2022/07/04 09:02:30;;;;;;;5.45;5.05;;;;;;;54.17;7.13;99839.63;6197401;23;20021;-77
2022/07/04 09:04:56;;;;;;;15.57;14.25;;;;;;;55.38;6.79;99845.38;6188849;23;20017;-76
2022/07/04 09:07:28;;;;;;;6.25;5.75;;;;;;;55.49;6.36;99843.97;6133726;23;20005;-77
2022/07/04 09:10:01;;;;;;;8.07;7.50;;;;;;;55.65;6.37;99833.31;6163576;23;20021;-77
2022/07/04 09:12:29;;;;;;;6.47;5.88;;;;;;;55.81;6.34;99841.28;6141029;23;20043;-77
2022/07/04 09:14:56;;;;;;;8.75;7.95;;;;;;;55.89;5.83;99834.94;6191179;23;20016;-79
2022/07/04 09:17:33;;;;;;;6.43;5.82;;;;;;;56.34;6.42;99839.66;6183497;23;20023;-78
2022/07/04 09:20:20;;;;;;;6.38;5.88;;;;;;;56.24;6.44;99837.97;6184322;23;20419;-80
2022/07/04 09:22:48;;;;;;;6.13;5.57;;;;;;;55.86;6.16;99843.94;6185451;23;20099;-79
2022/07/04 09:25:18;;;;;;;6.38;5.78;;;;;;;55.43;6.45;99833.28;6182869;23;20115;-77
2022/07/04 09:27:47;;;;;;;6.63;6.00;;;;;;;55.20;6.40;99819.28;6157992;23;20097;-76
2022/07/04 09:30:25;;;;;;;11.27;10.38;;;;;;;55.70;6.00;99821.19;6182216;23;20045;-78
2022/07/04 09:33:05;;;;;;;6.57;6.07;;;;;;;55.35;6.11;99826.50;6192868;23;20048;-79
2022/07/04 09:35:33;;;;;;;10.48;9.45;;;;;;;54.54;7.15;99811.16;6186706;23;20451;-78
2022/07/04 09:38:03;;;;;;;10.90;9.98;;;;;;;54.64;7.10;99809.00;6185350;23;20044;-77
2022/07/04 09:43:37;;;;;;;8.85;7.95;;;;;;;54.92;6.64;99808.16;6084136;23;20015;-76
2022/07/04 09:46:04;;;;;;;7.75;7.03;;;;;;;55.34;6.29;99811.72;6127529;23;20018;-77
2022/07/04 09:48:50;;;;;;;7.25;6.55;;;;;;;55.41;6.12;99816.84;6129425;23;20021;-78
2022/07/04 09:51:37;;;;;;;18.30;16.65;;;;;;;55.22;6.32;99817.00;6128632;23;20021;-78
2022/07/04 09:54:26;;;;;;;40.95;37.70;;;;;;;54.14;6.64;99812.44;6126597;23;20029;-78
2022/07/04 09:57:01;;;;;;;7.13;5.70;;;;;;;53.95;7.22;99809.69;6103048;23;20030;-77
2022/07/04 09:59:28;;;;;;;6.25;5.13;;;;;;;52.50;7.80;99805.22;6141464;23;20100;-79
2022/07/04 10:02:20;;;;;;;6.30;5.70;;;;;;;52.20;7.66;99799.69;6139029;23;20021;-79
2022/07/04 10:04:51;;;;;;;8.88;8.10;;;;;;;52.68;7.87;99798.94;6069463;23;20054;-76
2022/07/04 10:07:43;;;;;;;7.70;6.60;;;;;;;52.74;7.98;99799.72;6074662;23;20026;-77
2022/07/04 10:10:32;;;;;;;8.38;6.32;;;;;;;52.59;7.73;99792.41;6125129;23;20456;-76
2022/07/04 10:13:10;;;;;;;8.77;6.85;;;;;;;52.56;7.83;99795.72;6124177;23;20014;-75
2022/07/04 10:15:42;;;;;;;6.90;6.30;;;;;;;52.45;7.98;99788.63;6075372;23;20049;-77
2022/07/04 10:18:09;;;;;;;5.47;5.07;;;;;;;52.18;7.92;99784.47;6099163;23;20129;-77
2022/07/04 10:20:37;;;;;;;5.65;5.32;;;;;;;52.51;7.99;99779.13;6099571;23;20049;-77
2022/07/04 10:23:03;;;;;;;6.18;5.63;;;;;;;52.79;7.48;99784.94;6099256;23;20084;-76
2022/07/04 10:25:30;;;;;;;6.57;5.97;;;;;;;52.67;7.63;99783.41;6072443;23;20017;-77
2022/07/04 10:27:57;;;;;;;6.75;5.97;;;;;;;52.33;7.84;99755.75;6073771;23;20018;-77
2022/07/04 10:30:31;;;;;;;6.22;5.82;;;;;;;50.67;8.40;99778.16;6124588;23;20024;-79
2022/07/04 10:33:02;;;;;;;8.05;5.75;;;;;;;49.01;9.10;99764.22;6124103;23;20045;-76
2022/07/04 10:35:55;;;;;;;20.00;18.08;;;;;;;47.38;10.14;99769.91;6098438;23;20096;-80
2022/07/04 10:38:24;;;;;;;12.00;11.02;;;;;;;46.20;10.54;99753.44;6098402;23;20018;-78
2022/07/04 10:40:53;;;;;;;8.05;5.53;;;;;;;45.19;11.44;99755.72;6125579;23;20019;-78
2022/07/04 10:43:56;;;;;;;6.18;5.55;;;;;;;44.23;12.46;99757.75;6124323;23;20014;-76
2022/07/04 10:46:28;;;;;;;5.68;5.13;;;;;;;43.55;12.75;99754.34;6122900;23;20403;-77
2022/07/04 10:49:02;;;;;;;6.07;5.50;;;;;;;42.85;13.30;99750.16;6076182;23;20073;-76
2022/07/04 10:51:49;;;;;;;8.93;5.75;;;;;;;42.03;14.00;99754.69;6122964;23;20432;-78
2022/07/04 10:54:17;;;;;;;6.18;5.68;;;;;;;41.48;14.48;99741.56;6122458;23;20085;-78
2022/07/04 10:56:51;;;;;;;6.32;5.82;;;;;;;41.25;14.82;99753.84;6122441;23;20027;-79
2022/07/04 10:59:26;;;;;;;6.97;5.57;;;;;;;40.90;15.35;99749.53;6097266;23;20549;-78
2022/07/04 11:02:06;;;;;;;7.20;5.85;;;;;;;40.40;15.57;99750.06;6099020;23;20526;-79
2022/07/04 11:04:53;;;;;;;8.85;6.35;;;;;;;39.57;16.82;99752.03;6122853;23;20026;-78
2022/07/04 11:07:42;;;;;;;7.82;6.25;;;;;;;39.07;16.86;99748.69;6097668;23;20040;-76
2022/07/04 11:12:56;;;;;;;6.20;5.60;;;;;;;38.71;17.05;99748.69;6121664;23;20021;-77
2022/07/04 11:15:27;;;;;;;6.57;5.95;;;;;;;38.69;17.29;99742.59;6121708;23;20018;-77
2022/07/04 11:17:57;;;;;;;6.50;6.00;;;;;;;38.61;17.35;99737.31;6146605;23;20097;-79
2022/07/04 11:20:28;;;;;;;6.10;5.50;;;;;;;38.36;17.69;99742.34;6145976;23;20032;-78
2022/07/04 11:23:10;;;;;;;7.97;6.18;;;;;;;38.19;17.92;99742.63;6122250;23;20065;-78
2022/07/04 11:25:41;;;;;;;12.45;10.15;;;;;;;37.94;18.06;99745.78;6121303;23;20022;-77
2022/07/04 11:28:24;;;;;;;16.85;15.25;;;;;;;37.52;18.54;99748.22;6097087;23;20440;-77
2022/07/04 11:30:55;;;;;;;11.85;9.10;;;;;;;37.04;19.27;99743.25;6123300;23;20024;-77
2022/07/04 11:33:25;;;;;;;7.75;6.97;;;;;;;36.70;19.15;99736.47;6097145;23;20044;-77
2022/07/04 11:36:21;;;;;;;6.00;5.50;;;;;;;36.64;19.44;99734.50;6121279;23;20017;-79
2022/07/04 11:38:51;;;;;;;5.75;5.25;;;;;;;36.52;19.88;99723.31;6103086;23;20018;-78
2022/07/04 11:46:49;;;;;;;8.63;5.50;;;;;;;36.24;19.70;99732.00;6147831;23;20017;-76
2022/07/04 11:49:15;;;;;;;6.05;5.55;;;;;;;36.11;20.07;99734.47;6123579;23;20017;-76
2022/07/04 11:51:49;;;;;;;6.50;5.70;;;;;;;35.91;19.93;99721.41;6127042;23;20017;-76
2022/07/04 11:54:18;;;;;;;7.45;5.88;;;;;;;35.75;20.18;99725.13;6126375;23;20408;-77
2022/07/04 11:56:45;;;;;;;5.90;5.10;;;;;;;35.58;20.69;99725.19;6124350;23;20037;-77
2022/07/04 11:59:15;;;;;;;7.22;6.50;;;;;;;35.27;20.94;99717.06;6125234;23;20101;-78
2022/07/04 12:01:43;;;;;;;6.57;5.38;;;;;;;35.22;21.07;99720.31;6123464;23;20017;-78
2022/07/04 12:04:22;;;;;;;7.82;6.13;;;;;;;35.17;21.37;99720.00;6099039;23;20105;-76
2022/07/04 12:06:49;;;;;;;7.35;6.15;;;;;;;35.03;21.65;99720.75;6125429;23;20416;-76